Time;durP1;ratioP1;P1;durP2;ratioP2;P2;SDS_P1;SDS_P2;PMS_P1;PMS_P2;Temp;Humidity;BMP_temperature;BMP_pressure;BME280_temperature;BME280_humidity;BME280_pressure;Samples;Min_cycle;Max_cycle;Signal;HPM_P1;HPM_P2
2022/01/08 00:01:28;;;;;;;;;;;;;;;20.60;48.33;100501.25;5032377;28;4172;-76
2022/01/08 00:03:54;;;;;;;;;;;;;;;20.65;48.15;100502.88;5032599;28;4288;-78
2022/01/08 00:06:21;;;;;;;;;;;;;;;20.66;47.71;100498.59;5031200;28;4389;-75
2022/01/08 00:08:49;;;;;;;;;;;;;;;20.65;47.99;100508.63;5032481;28;4073;-79
2022/01/08 00:11:19;;;;;;;;;;;;;;;20.64;48.01;100495.66;5035092;28;4168;-78
2022/01/08 00:13:45;;;;;;;;;;;;;;;20.65;48.23;100497.13;5031325;28;4246;-81
2022/01/08 00:16:11;;;;;;;;;;;;;;;20.64;48.07;100495.66;5033204;28;4096;-83
2022/01/08 00:18:38;;;;;;;;;;;;;;;20.66;48.34;100495.72;5031400;28;4195;-72
2022/01/08 00:21:04;;;;;;;;;;;;;;;20.69;48.22;100491.53;5032299;28;5756;-78
2022/01/08 00:23:30;;;;;;;;;;;;;;;20.63;47.81;100494.91;5032525;28;4216;-76
2022/01/08 00:25:58;;;;;;;;;;;;;;;20.70;47.95;100499.47;5031217;28;4245;-73
2022/01/08 00:28:25;;;;;;;;;;;;;;;20.64;48.10;100496.38;5031963;28;4082;-76
2022/01/08 00:30:52;;;;;;;;;;;;;;;20.61;48.46;100485.44;5031838;28;4079;-79
2022/01/08 00:33:19;;;;;;;;;;;;;;;20.62;47.85;100492.69;5031822;28;4196;-72
2022/01/08 00:35:45;;;;;;;;;;;;;;;20.59;47.95;100489.00;5031044;28;4185;-74
2022/01/08 00:38:11;;;;;;;;;;;;;;;20.63;48.02;100494.16;5030393;28;4283;-74
2022/01/08 00:40:38;;;;;;;;;;;;;;;20.62;48.09;100492.69;5035138;28;4319;-79
2022/01/08 00:43:04;;;;;;;;;;;;;;;20.61;48.28;100491.19;5030066;28;4572;-68
2022/01/08 00:45:30;;;;;;;;;;;;;;;20.68;48.18;100490.03;5037154;28;4229;-68
2022/01/08 00:47:57;;;;;;;;;;;;;;;20.70;48.21;100493.72;5038475;28;4114;-68
2022/01/08 00:50:23;;;;;;;;;;;;;;;20.75;48.25;100506.13;5037311;28;4237;-66
2022/01/08 00:52:49;;;;;;;;;;;;;;;20.76;47.64;100498.28;5036584;28;4180;-67
2022/01/08 00:55:16;;;;;;;;;;;;;;;20.74;47.78;100496.03;5037440;28;4538;-68
2022/01/08 00:58:20;;;;;;;;;;;;;;;20.84;47.86;100490.66;5035927;28;4184;-67
2022/01/08 01:01:32;;;;;;;;;;;;;;;20.79;48.10;100489.03;5028740;28;6273;-67
2022/01/08 01:03:58;;;;;;;;;;;;;;;20.81;47.85;100480.47;5036561;28;4176;-68
2022/01/08 01:06:24;;;;;;;;;;;;;;;20.80;47.92;100478.25;5032259;28;4261;-67
2022/01/08 01:08:51;;;;;;;;;;;;;;;20.77;48.33;100483.19;5037067;28;4245;-68
2022/01/08 01:11:17;;;;;;;;;;;;;;;20.78;48.44;100470.31;5038480;28;4258;-68
2022/01/08 01:13:44;;;;;;;;;;;;;;;20.78;48.13;100473.19;5036399;28;5416;-67
2022/01/08 01:16:10;;;;;;;;;;;;;;;20.73;48.23;100483.06;5035798;28;5222;-67
2022/01/08 01:18:37;;;;;;;;;;;;;;;20.76;48.12;100478.13;5037021;28;4174;-67
2022/01/08 01:21:03;;;;;;;;;;;;;;;20.76;48.32;100475.25;5033198;28;4440;-68
2022/01/08 01:23:32;;;;;;;;;;;;;;;20.77;47.67;100477.44;5033208;28;5348;-68
2022/01/08 01:26:02;;;;;;;;;;;;;;;20.86;48.05;100470.59;5035962;28;4263;-68
2022/01/08 01:41:44;;;;;;;;;;;;;;;20.80;47.79;100455.25;5036641;28;4167;-68
2022/01/08 01:47:02;;;;;;;;;;;;;;;20.78;48.29;100453.03;5034937;28;4295;-67
2022/01/08 01:49:29;;;;;;;;;;;;;;;20.83;48.03;100436.66;5035411;28;4166;-67
2022/01/08 01:51:56;;;;;;;;;;;;;;;20.78;47.97;100435.78;5036579;28;4130;-68
2022/01/08 01:54:22;;;;;;;;;;;;;;;20.82;47.88;100444.56;5035298;28;4248;-68
2022/01/08 01:56:48;;;;;;;;;;;;;;;20.79;48.16;100443.00;5036701;28;4167;-67
2022/01/08 01:59:15;;;;;;;;;;;;;;;20.82;47.89;100435.94;5037609;28;4117;-67
2022/01/08 02:01:41;;;;;;;;;;;;;;;20.83;47.80;100443.16;5052142;28;4271;-68
2022/01/08 02:04:08;;;;;;;;;;;;;;;20.75;48.36;100442.84;5036403;28;3993;-68
2022/01/08 02:06:34;;;;;;;;;;;;;;;20.82;48.17;100433.06;5034843;28;4612;-67
2022/01/08 02:09:00;;;;;;;;;;;;;;;20.75;48.11;100436.34;5038278;28;4545;-67
2022/01/08 02:11:27;;;;;;;;;;;;;;;20.81;48.11;100439.47;5037079;28;4508;-68
2022/01/08 02:14:00;;;;;;;;;;;;;;;20.81;48.29;100422.94;5037476;28;4055;-67
2022/01/08 02:16:27;;;;;;;;;;;;;;;20.84;47.79;100432.38;5035909;28;4149;-67
2022/01/08 02:18:53;;;;;;;;;;;;;;;20.80;47.91;100427.22;5031399;28;4276;-67
2022/01/08 02:21:20;;;;;;;;;;;;;;;20.80;47.77;100444.50;5036964;28;4181;-67
2022/01/08 02:23:48;;;;;;;;;;;;;;;20.80;48.15;100438.72;5036793;28;4089;-67
2022/01/08 02:26:14;;;;;;;;;;;;;;;20.79;47.89;100431.50;5037225;28;4071;-67
2022/01/08 02:28:41;;;;;;;;;;;;;;;20.79;48.12;100436.50;5032368;28;4188;-67
2022/01/08 02:31:07;;;;;;;;;;;;;;;20.83;48.27;100431.66;5033104;28;3952;-67
2022/01/08 02:33:34;;;;;;;;;;;;;;;20.77;48.10;100433.56;5031138;28;4188;-67
2022/01/08 02:36:05;;;;;;;;;;;;;;;20.80;48.20;100432.97;5032004;28;4196;-67
2022/01/08 02:38:32;;;;;;;;;;;;;;;20.75;48.52;100434.19;5035007;28;4112;-66
2022/01/08 02:41:02;;;;;;;;;;;;;;;20.77;48.36;100440.03;5036690;28;4272;-67
2022/01/08 02:43:33;;;;;;;;;;;;;;;20.77;48.24;100434.28;5035874;28;4183;-67
2022/01/08 02:45:59;;;;;;;;;;;;;;;20.86;48.13;100441.81;5033317;28;4256;-67
2022/01/08 02:48:25;;;;;;;;;;;;;;;20.83;47.89;100431.66;5034168;28;4222;-67
2022/01/08 02:50:52;;;;;;;;;;;;;;;20.87;48.05;100431.06;5036225;28;3991;-67
2022/01/08 02:53:18;;;;;;;;;;;;;;;20.78;47.44;100432.91;5035570;28;4079;-67
2022/01/08 02:55:50;;;;;;;;;;;;;;;20.76;48.15;100438.56;5031842;28;4186;-67
2022/01/08 02:58:16;;;;;;;;;;;;;;;20.85;48.19;100431.72;5035615;28;4390;-67
2022/01/08 03:00:42;;;;;;;;;;;;;;;20.82;48.34;100427.31;5034294;28;4178;-67
2022/01/08 03:03:09;;;;;;;;;;;;;;;20.83;48.09;100430.91;5034021;28;4374;-67
2022/01/08 03:05:35;;;;;;;;;;;;;;;20.84;48.09;100426.63;5035410;28;5241;-66
2022/01/08 03:08:02;;;;;;;;;;;;;;;20.84;48.05;100432.38;5032828;28;4740;-66
2022/01/08 03:10:28;;;;;;;;;;;;;;;20.82;48.13;100430.19;5034657;28;4212;-66
2022/01/08 03:12:54;;;;;;;;;;;;;;;20.85;47.72;100428.13;5034546;28;4645;-67
2022/01/08 03:15:21;;;;;;;;;;;;;;;20.83;47.77;100420.13;5033255;28;4249;-67
2022/01/08 03:17:47;;;;;;;;;;;;;;;20.84;47.83;100427.34;5035531;28;5198;-67
2022/01/08 03:20:14;;;;;;;;;;;;;;;20.82;48.31;100417.91;5035810;28;4256;-67
2022/01/08 03:22:41;;;;;;;;;;;;;;;20.79;48.38;100419.97;5032801;28;4202;-67
2022/01/08 03:25:07;;;;;;;;;;;;;;;20.81;47.75;100408.53;5035304;28;4070;-67
2022/01/08 03:27:34;;;;;;;;;;;;;;;20.77;48.08;100422.78;5034217;28;4394;-67
2022/01/08 03:30:00;;;;;;;;;;;;;;;20.82;47.98;100421.56;5035723;28;4075;-66
2022/01/08 03:32:27;;;;;;;;;;;;;;;20.77;48.21;100417.03;5033636;28;4248;-66
2022/01/08 03:34:53;;;;;;;;;;;;;;;20.74;48.47;100424.09;5034251;28;4280;-66
2022/01/08 03:37:20;;;;;;;;;;;;;;;20.77;48.47;100422.78;5035788;28;4117;-67
2022/01/08 03:39:46;;;;;;;;;;;;;;;20.80;48.23;100427.22;5030915;28;5205;-66
2022/01/08 03:42:12;;;;;;;;;;;;;;;20.74;48.06;100434.88;5031327;28;4284;-67
2022/01/08 03:44:39;;;;;;;;;;;;;;;20.85;47.90;100428.13;5036216;28;5248;-67
2022/01/08 03:47:41;;;;;;;;;;;;;;;20.79;47.81;100431.50;5032944;28;4428;-67
2022/01/08 03:50:07;;;;;;;;;;;;;;;20.74;47.99;100423.38;5034496;28;4348;-67
2022/01/08 03:52:33;;;;;;;;;;;;;;;20.78;47.86;100420.66;5030757;28;4545;-67
2022/01/08 03:55:00;;;;;;;;;;;;;;;20.82;47.95;100424.44;5032518;28;4125;-67
2022/01/08 03:57:26;;;;;;;;;;;;;;;20.80;47.92;100421.47;5032133;28;4625;-66
2022/01/08 03:59:52;;;;;;;;;;;;;;;20.71;47.93;100425.44;5033380;28;4071;-67
2022/01/08 04:02:19;;;;;;;;;;;;;;;20.82;47.89;100424.44;5031341;28;4193;-67
2022/01/08 04:04:48;;;;;;;;;;;;;;;20.82;48.38;100417.91;5032508;28;4359;-67
2022/01/08 04:07:14;;;;;;;;;;;;;;;20.81;47.70;100425.06;5034109;28;4006;-67
2022/01/08 04:09:41;;;;;;;;;;;;;;;20.83;47.32;100428.75;5032594;28;4253;-66
2022/01/08 04:12:08;;;;;;;;;;;;;;;20.78;47.92;100430.03;5035304;28;4183;-67
2022/01/08 04:14:52;;;;;;;;;;;;;;;20.84;48.02;100438.88;5031783;28;4266;-67
2022/01/08 04:17:18;;;;;;;;;;;;;;;20.86;47.70;100429.59;5034070;28;4220;-67
2022/01/08 04:19:44;;;;;;;;;;;;;;;20.81;48.04;100428.69;5036578;28;5297;-67
2022/01/08 04:22:12;;;;;;;;;;;;;;;20.83;47.83;100430.91;5038596;28;4344;-67
2022/01/08 04:24:39;;;;;;;;;;;;;;;20.81;48.16;100434.44;5036614;28;4193;-67
2022/01/08 04:27:06;;;;;;;;;;;;;;;20.85;48.03;100440.34;5037971;28;5276;-67
2022/01/08 04:29:32;;;;;;;;;;;;;;;20.86;47.97;100436.06;5037233;28;4180;-67
2022/01/08 04:31:59;;;;;;;;;;;;;;;20.81;48.12;100434.44;5036399;28;5346;-67
2022/01/08 04:34:27;;;;;;;;;;;;;;;20.81;48.32;100431.56;5037800;28;4560;-67
2022/01/08 04:36:53;;;;;;;;;;;;;;;20.78;48.20;100441.53;5038811;28;4179;-66
2022/01/08 04:39:20;;;;;;;;;;;;;;;20.78;48.34;100435.78;5035232;28;4225;-67
2022/01/08 04:41:46;;;;;;;;;;;;;;;20.78;48.29;100441.53;5037177;28;4137;-67
2022/01/08 04:44:12;;;;;;;;;;;;;;;20.86;47.97;100436.06;5034389;28;4091;-66
2022/01/08 04:46:41;;;;;;;;;;;;;;;20.76;48.06;100437.84;5039252;28;5309;-67
2022/01/08 04:49:07;;;;;;;;;;;;;;;20.84;48.23;100438.88;5036615;28;4274;-67
2022/01/08 04:51:33;;;;;;;;;;;;;;;20.87;47.95;100449.06;5036983;28;4267;-67
2022/01/08 04:54:00;;;;;;;;;;;;;;;20.83;48.43;100443.16;5037404;28;5617;-66
2022/01/08 04:56:26;;;;;;;;;;;;;;;20.82;47.71;100438.81;5035358;28;4549;-67
2022/01/08 04:58:52;;;;;;;;;;;;;;;20.83;48.54;100437.41;5037006;28;4168;-67
2022/01/08 05:01:19;;;;;;;;;;;;;;;20.84;48.55;100453.25;5036890;28;4218;-67
2022/01/08 05:03:45;;;;;;;;;;;;;;;20.77;48.65;100451.53;5038108;28;4539;-67
2022/01/08 05:06:12;;;;;;;;;;;;;;;20.83;48.37;100460.41;5032707;28;4512;-67
2022/01/08 05:08:38;;;;;;;;;;;;;;;20.82;48.50;100458.97;5037128;28;5224;-66
2022/01/08 05:11:04;;;;;;;;;;;;;;;20.82;48.14;100456.06;5035050;28;4240;-67
2022/01/08 05:13:31;;;;;;;;;;;;;;;20.85;48.34;100454.00;5036823;28;4264;-67
2022/01/08 05:15:58;;;;;;;;;;;;;;;20.87;48.35;100448.34;5034237;28;4084;-67
2022/01/08 05:18:25;;;;;;;;;;;;;;;20.91;48.39;100448.47;5036018;28;4203;-67
2022/01/08 05:20:57;;;;;;;;;;;;;;;20.82;48.46;100441.69;5035652;28;4413;-67
2022/01/08 05:23:24;;;;;;;;;;;;;;;20.84;48.45;100438.88;5036738;28;5503;-67
2022/01/08 05:25:50;;;;;;;;;;;;;;;20.83;48.66;100451.06;5037423;28;4255;-67
2022/01/08 05:28:16;;;;;;;;;;;;;;;20.82;48.70;100441.69;5036967;28;4078;-67
2022/01/08 05:30:43;;;;;;;;;;;;;;;20.80;48.55;100444.50;5035394;28;4089;-67
2022/01/08 05:33:09;;;;;;;;;;;;;;;20.84;48.55;100447.50;5036457;28;4457;-67
2022/01/08 05:35:36;;;;;;;;;;;;;;;20.81;48.54;100445.97;5036047;28;4189;-67
2022/01/08 05:38:02;;;;;;;;;;;;;;;20.93;48.41;100446.41;5035860;28;4176;-66
2022/01/08 05:40:28;;;;;;;;;;;;;;;20.90;48.41;100453.50;5038883;28;4171;-67
2022/01/08 05:42:55;;;;;;;;;;;;;;;20.82;48.49;100458.97;5036904;28;4235;-66
2022/01/08 05:45:21;;;;;;;;;;;;;;;20.86;48.81;100458.34;5037538;28;4098;-67
2022/01/08 05:47:47;;;;;;;;;;;;;;;20.79;48.62;100454.50;5034093;28;4028;-67
2022/01/08 05:50:14;;;;;;;;;;;;;;;20.74;48.17;100460.78;5033813;28;4193;-67
2022/01/08 05:52:40;;;;;;;;;;;;;;;20.83;48.70;100459.69;5037030;28;5422;-67
2022/01/08 05:55:07;;;;;;;;;;;;;;;20.85;48.66;100457.63;5036744;28;5264;-67
2022/01/08 05:57:33;;;;;;;;;;;;;;;20.85;48.46;100460.50;5034834;28;4251;-67
2022/01/08 06:00:01;;;;;;;;;;;;;;;20.89;48.47;100457.78;5036150;28;4238;-67
2022/01/08 06:02:33;;;;;;;;;;;;;;;20.80;48.70;100461.75;5035965;28;4042;-67
2022/01/08 06:04:59;;;;;;;;;;;;;;;20.88;48.86;100462.03;5035093;28;4261;-66
2022/01/08 06:07:26;;;;;;;;;;;;;;;20.85;49.11;100457.63;5035369;28;5484;-67
2022/01/08 06:09:52;;;;;;;;;;;;;;;20.97;48.46;100456.59;5033727;28;5144;-67
2022/01/08 06:12:18;;;;;;;;;;;;;;;20.84;48.47;100466.91;5036870;28;5274;-67
2022/01/08 06:14:45;;;;;;;;;;;;;;;20.66;48.68;100464.06;5033597;28;5254;-67
2022/01/08 06:17:11;;;;;;;;;;;;;;;20.58;49.37;100469.50;5036959;28;4242;-67
2022/01/08 06:19:38;;;;;;;;;;;;;;;20.60;49.68;100467.47;5035204;28;4565;-66
2022/01/08 06:22:04;;;;;;;;;;;;;;;20.59;49.30;100470.97;5019358;28;4041;-67
2022/01/08 06:24:30;;;;;;;;;;;;;;;20.51;49.22;100466.38;5035488;28;4553;-67
2022/01/08 06:26:57;;;;;;;;;;;;;;;20.56;49.15;100472.28;5037663;28;4645;-67
2022/01/08 06:29:23;;;;;;;;;;;;;;;20.63;49.33;100476.91;5035348;28;4248;-67
2022/01/08 06:31:49;;;;;;;;;;;;;;;20.56;49.38;100478.03;5035689;28;4212;-67
2022/01/08 06:34:16;;;;;;;;;;;;;;;20.53;49.45;100480.09;5037034;28;4288;-66
2022/01/08 06:36:42;;;;;;;;;;;;;;;20.53;49.30;100479.38;5033476;28;5394;-66
2022/01/08 06:39:08;;;;;;;;;;;;;;;20.48;49.38;100484.94;5034785;28;4163;-67
2022/01/08 06:41:36;;;;;;;;;;;;;;;20.59;49.37;100480.38;5037324;28;5476;-67
2022/01/08 06:44:02;;;;;;;;;;;;;;;20.62;49.52;100484.06;5035621;28;4379;-67
2022/01/08 06:46:28;;;;;;;;;;;;;;;20.60;49.46;100489.75;5020209;28;5664;-67
2022/01/08 06:48:55;;;;;;;;;;;;;;;20.62;49.57;100492.69;5036293;28;4193;-66
2022/01/08 06:51:21;;;;;;;;;;;;;;;20.59;49.75;100488.25;5036672;28;4661;-67
2022/01/08 06:53:47;;;;;;;;;;;;;;;20.61;49.16;100485.44;5034025;28;4167;-67
2022/01/08 06:56:14;;;;;;;;;;;;;;;20.64;49.75;100490.63;5036361;28;4113;-67
2022/01/08 06:58:43;;;;;;;;;;;;;;;20.60;49.53;100495.50;5035180;28;4185;-67
2022/01/08 07:01:09;;;;;;;;;;;;;;;20.69;49.60;100497.28;5033542;28;4212;-67
2022/01/08 07:03:36;;;;;;;;;;;;;;;20.59;49.56;100496.88;5034339;28;4194;-67
2022/01/08 07:06:02;;;;;;;;;;;;;;;20.60;49.35;100504.13;5034403;28;4401;-66
2022/01/08 07:08:29;;;;;;;;;;;;;;;20.68;49.47;100496.56;5035097;28;4294;-66
2022/01/08 07:10:55;;;;;;;;;;;;;;;20.66;49.18;100498.59;5034430;28;4114;-67
2022/01/08 07:13:21;;;;;;;;;;;;;;;20.57;49.55;100499.66;5033585;28;4117;-67
2022/01/08 07:15:48;;;;;;;;;;;;;;;20.58;49.48;100504.03;5034518;28;4220;-67
2022/01/08 07:18:14;;;;;;;;;;;;;;;20.61;49.22;100505.59;5034230;28;4202;-66
2022/01/08 07:20:40;;;;;;;;;;;;;;;20.53;49.71;100497.34;5034712;28;4095;-67
2022/01/08 07:23:07;;;;;;;;;;;;;;;20.58;49.26;100509.78;5034317;28;3993;-67
2022/01/08 07:25:33;;;;;;;;;;;;;;;20.59;49.34;100512.00;5032868;28;4649;-67
2022/01/08 07:27:59;;;;;;;;;;;;;;;20.62;49.65;100507.09;5034231;28;4362;-67
2022/01/08 07:30:26;;;;;;;;;;;;;;;20.63;49.44;100514.31;5034201;28;4243;-67
2022/01/08 07:32:52;;;;;;;;;;;;;;;20.56;49.23;100513.31;5035331;28;4229;-67
2022/01/08 07:35:21;;;;;;;;;;;;;;;20.57;49.46;100514.03;5034215;28;5247;-67
2022/01/08 07:37:48;;;;;;;;;;;;;;;20.57;49.68;100508.28;5033698;28;4163;-67
2022/01/08 07:40:14;;;;;;;;;;;;;;;20.59;49.33;100511.25;5034660;28;4130;-67
2022/01/08 07:42:41;;;;;;;;;;;;;;;20.60;49.28;100518.50;5034784;28;4144;-67
2022/01/08 07:45:12;;;;;;;;;;;;;;;20.57;49.76;100505.41;5034895;28;4256;-67
2022/01/08 07:47:39;;;;;;;;;;;;;;;20.54;49.43;100509.59;5032436;28;4246;-67
2022/01/08 07:50:05;;;;;;;;;;;;;;;20.66;49.51;100515.84;5033816;28;4151;-67
2022/01/08 07:52:32;;;;;;;;;;;;;;;20.65;49.48;100514.38;5033825;28;4576;-67
2022/01/08 07:54:58;;;;;;;;;;;;;;;20.56;49.76;100529.81;5033291;28;4276;-66
2022/01/08 07:57:24;;;;;;;;;;;;;;;20.57;49.58;100532.06;5034830;28;5032;-67
2022/01/08 07:59:51;;;;;;;;;;;;;;;20.50;49.43;100531.06;5031502;28;4197;-67
2022/01/08 08:02:18;;;;;;;;;;;;;;;20.54;49.57;100532.59;5032963;28;4063;-67
2022/01/08 08:04:45;;;;;;;;;;;;;;;20.60;49.75;100525.00;5034081;28;4131;-66
2022/01/08 08:07:12;;;;;;;;;;;;;;;20.62;49.76;100527.22;5035959;28;4237;-67
2022/01/08 08:09:38;;;;;;;;;;;;;;;20.55;49.60;100534.84;5035906;28;5279;-67
2022/01/08 08:12:05;;;;;;;;;;;;;;;20.48;50.00;100536.72;5035957;28;4257;-66
2022/01/08 08:14:31;;;;;;;;;;;;;;;20.50;50.38;100545.44;5033961;28;4992;-76
2022/01/08 08:16:57;;;;;;;;;;;;;;;20.42;50.88;100536.47;5024308;28;4186;-71
2022/01/08 08:19:24;;;;;;;;;;;;;;;20.42;51.76;100533.59;5033554;28;4122;-76
2022/01/08 08:21:50;;;;;;;;;;;;;;;20.42;51.49;100533.59;5036175;28;4011;-78
2022/01/08 08:24:19;;;;;;;;;;;;;;;20.43;52.75;100537.19;5034167;28;4071;-72
2022/01/08 08:26:45;;;;;;;;;;;;;;;20.45;52.65;100538.00;5029004;28;4203;-71
2022/01/08 08:29:11;;;;;;;;;;;;;;;20.36;53.38;100530.44;5034948;28;4144;-73
2022/01/08 08:31:38;;;;;;;;;;;;;;;20.45;52.59;100526.50;5032402;28;4194;-77
2022/01/08 08:34:07;;;;;;;;;;;;;;;20.51;52.79;100517.41;5037777;28;4177;-81
2022/01/08 08:36:34;;;;;;;;;;;;;;;20.57;53.51;100514.81;5038025;28;4200;-78
2022/01/08 08:39:00;;;;;;;;;;;;;;;20.53;53.68;100513.88;5041436;28;4236;-80
2022/01/08 08:41:26;;;;;;;;;;;;;;;20.51;53.27;100505.91;5032457;28;4230;-67
2022/01/08 08:43:53;;;;;;;;;;;;;;;20.55;52.60;100505.31;5033289;28;4069;-80
2022/01/08 08:46:19;;;;;;;;;;;;;;;20.54;52.77;100500.97;5026576;28;4267;-68
2022/01/08 08:48:45;;;;;;;;;;;;;;;20.67;52.45;100505.84;5028050;28;5255;-68
2022/01/08 08:51:12;;;;;;;;;;;;;;;20.64;52.17;100498.53;5029456;28;4382;-68
2022/01/08 08:53:38;;;;;;;;;;;;;;;20.55;52.29;100503.19;5034212;28;5270;-68
2022/01/08 08:56:05;;;;;;;;;;;;;;;20.53;52.31;100496.63;5031799;28;5421;-68
2022/01/08 08:58:31;;;;;;;;;;;;;;;20.66;52.16;100499.34;5030624;28;5244;-68
2022/01/08 09:00:57;;;;;;;;;;;;;;;20.71;51.91;100495.22;5029794;28;5249;-68
2022/01/08 09:03:24;;;;;;;;;;;;;;;20.65;51.88;100497.13;5032145;28;5179;-67
2022/01/08 09:05:50;;;;;;;;;;;;;;;20.68;51.73;100501.53;5034156;28;4078;-67
2022/01/08 09:08:17;;;;;;;;;;;;;;;20.67;51.82;100500.09;5034828;28;5420;-68
2022/01/08 09:10:43;;;;;;;;;;;;;;;20.68;51.96;100502.31;5034473;28;4165;-68
2022/01/08 09:13:10;;;;;;;;;;;;;;;20.75;51.77;100506.13;5034673;28;5792;-68
2022/01/08 09:15:41;;;;;;;;;;;;;;;20.70;51.31;100504.50;5034755;28;4200;-68
2022/01/08 09:18:08;;;;;;;;;;;;;;;20.70;51.74;100507.38;5035637;28;4242;-68
2022/01/08 09:20:34;;;;;;;;;;;;;;;20.75;51.18;100505.41;5032342;28;4194;-72
2022/01/08 09:23:00;;;;;;;;;;;;;;;20.71;51.31;100515.38;5034704;28;5462;-67
2022/01/08 09:25:27;;;;;;;;;;;;;;;20.66;50.99;100516.59;5034707;28;4121;-72
2022/01/08 09:27:53;;;;;;;;;;;;;;;20.71;50.97;100526.13;5034605;28;4298;-67
2022/01/08 09:30:19;;;;;;;;;;;;;;;20.77;51.44;100520.59;5038725;28;5524;-68
2022/01/08 09:32:46;;;;;;;;;;;;;;;20.73;50.67;100525.47;5035732;28;4212;-69
2022/01/08 09:35:13;;;;;;;;;;;;;;;20.69;51.16;100520.31;5032838;28;4311;-69
2022/01/08 09:37:39;;;;;;;;;;;;;;;20.81;51.11;100508.53;5031701;28;5137;-68
2022/01/08 09:40:06;;;;;;;;;;;;;;;20.76;51.33;100513.38;5037946;28;4298;-69
2022/01/08 09:42:33;;;;;;;;;;;;;;;20.72;51.94;100518.97;5025363;28;4260;-67
2022/01/08 09:44:59;;;;;;;;;;;;;;;20.73;51.57;100525.47;5031695;28;4216;-67
2022/01/08 09:47:25;;;;;;;;;;;;;;;20.05;50.14;100532.06;5030272;28;4194;-76
2022/01/08 09:49:52;;;;;;;;;;;;;;;19.94;51.77;100521.53;5034521;28;4185;-77
2022/01/08 09:52:18;;;;;;;;;;;;;;;20.21;51.12;100514.75;5022286;28;5432;-74
2022/01/08 09:54:44;;;;;;;;;;;;;;;20.25;51.13;100514.94;5036127;28;4233;-79
2022/01/08 09:57:11;;;;;;;;;;;;;;;20.34;50.97;100516.00;5035570;28;4095;-72
2022/01/08 09:59:56;;;;;;;;;;;;;;;20.33;50.83;100505.91;5035480;28;4176;-74
2022/01/08 10:02:23;;;;;;;;;;;;;;;20.40;51.19;100507.63;5025568;28;4133;-71
2022/01/08 10:04:49;;;;;;;;;;;;;;;20.48;51.74;100501.47;5038451;28;4302;-72
2022/01/08 10:07:20;;;;;;;;;;;;;;;20.40;51.70;100501.88;5040496;28;4478;-72
2022/01/08 10:10:10;;;;;;;;;;;;;;;20.43;51.77;100491.94;5037426;28;4130;-72
2022/01/08 10:12:38;;;;;;;;;;;;;;;20.41;51.68;100493.97;5037242;28;4066;-73
2022/01/08 10:17:49;;;;;;;;;;;;;;;20.47;51.97;100494.22;5037059;28;4145;-71
2022/01/08 10:20:28;;;;;;;;;;;;;;;20.44;52.01;100492.69;5035617;28;4505;-72
2022/01/08 10:23:18;;;;;;;;;;;;;;;20.48;51.77;100490.69;5036462;28;4613;-71
2022/01/08 10:26:00;;;;;;;;;;;;;;;20.44;52.36;100484.78;5027769;28;4491;-71
2022/01/08 10:28:44;;;;;;;;;;;;;;;20.52;52.02;100490.09;5033871;28;4253;-71
2022/01/08 10:31:12;;;;;;;;;;;;;;;20.43;51.75;100494.81;5031747;28;4187;-72
2022/01/08 10:33:38;;;;;;;;;;;;;;;20.44;52.12;100484.78;5036782;28;4176;-75
2022/01/08 10:36:05;;;;;;;;;;;;;;;20.51;52.36;100483.63;5033729;28;4175;-75
2022/01/08 10:38:31;;;;;;;;;;;;;;;20.44;52.29;100496.28;5032970;28;4283;-74
2022/01/08 10:40:58;;;;;;;;;;;;;;;20.46;52.35;100493.50;5032796;28;4123;-72
2022/01/08 10:43:28;;;;;;;;;;;;;;;20.36;52.64;100484.44;5021362;28;4171;-75
2022/01/08 10:45:55;;;;;;;;;;;;;;;20.43;52.01;100477.56;5030760;28;4172;-75
2022/01/08 10:48:31;;;;;;;;;;;;;;;20.40;52.54;100472.38;5032132;28;4533;-75
2022/01/08 10:51:13;;;;;;;;;;;;;;;20.45;52.26;100485.50;5052155;28;5386;-72
2022/01/08 10:53:53;;;;;;;;;;;;;;;20.40;52.40;100478.84;5032464;28;4197;-72
2022/01/08 10:56:33;;;;;;;;;;;;;;;20.43;52.38;100483.31;5028382;28;4097;-78
2022/01/08 10:59:01;;;;;;;;;;;;;;;20.45;51.92;100479.75;5036392;28;4400;-76
2022/01/08 11:01:37;;;;;;;;;;;;;;;20.39;50.65;100491.78;5036744;28;5321;-78
2022/01/08 11:04:05;;;;;;;;;;;;;;;20.37;52.10;100488.81;5037182;28;4152;-77
2022/01/08 11:06:31;;;;;;;;;;;;;;;20.43;52.21;100477.56;5018163;28;4159;-75
2022/01/08 11:09:01;;;;;;;;;;;;;;;20.48;52.02;100487.81;5036065;28;4308;-76
2022/01/08 11:11:30;;;;;;;;;;;;;;;20.41;51.44;100485.34;5035192;28;4327;-76
2022/01/08 11:14:06;;;;;;;;;;;;;;;20.42;51.67;100487.56;5037739;28;4253;-75
2022/01/08 11:16:32;;;;;;;;;;;;;;;20.41;51.82;100486.09;5032457;28;5368;-73
2022/01/08 11:18:58;;;;;;;;;;;;;;;20.40;51.58;100496.13;5036224;28;5223;-73
2022/01/08 11:21:27;;;;;;;;;;;;;;;20.46;51.93;100493.50;5034009;28;4031;-73
2022/01/08 11:23:53;;;;;;;;;;;;;;;20.39;51.78;100494.66;5020469;28;4260;-73
2022/01/08 11:26:19;;;;;;;;;;;;;;;20.48;51.75;100495.72;5014655;28;4042;-73
2022/01/08 11:28:46;;;;;;;;;;;;;;;20.45;51.55;100491.25;5051518;28;3998;-73
2022/01/08 11:31:14;;;;;;;;;;;;;;;20.44;52.08;100481.91;5037017;28;4372;-73
2022/01/08 11:33:44;;;;;;;;;;;;;;;20.44;51.43;100484.06;5019020;28;4195;-73
2022/01/08 11:36:12;;;;;;;;;;;;;;;20.44;51.47;100490.53;5033924;28;4110;-72
2022/01/08 11:38:41;;;;;;;;;;;;;;;20.43;51.81;100477.56;5035516;28;4461;-72
2022/01/08 11:41:07;;;;;;;;;;;;;;;20.38;51.88;100473.03;5026485;28;4023;-72
2022/01/08 11:43:33;;;;;;;;;;;;;;;20.38;51.87;100475.91;5034950;28;4213;-74
2022/01/08 11:46:00;;;;;;;;;;;;;;;20.39;51.76;100477.41;5022171;28;4320;-73
2022/01/08 11:48:30;;;;;;;;;;;;;;;20.42;52.03;100481.09;5034639;28;4089;-73
2022/01/08 11:50:57;;;;;;;;;;;;;;;20.40;51.50;100478.13;5029907;28;4106;-72
2022/01/08 11:53:27;;;;;;;;;;;;;;;20.35;52.38;100474.34;5036615;28;5033;-75
2022/01/08 11:55:55;;;;;;;;;;;;;;;20.51;52.19;100469.25;5030891;28;5549;-72
2022/01/08 11:58:23;;;;;;;;;;;;;;;20.56;52.57;100472.28;5033047;28;4121;-73
2022/01/08 12:00:54;;;;;;;;;;;;;;;20.52;52.80;100472.84;5035452;28;4036;-77
2022/01/08 12:03:39;;;;;;;;;;;;;;;20.46;52.69;100482.00;5036279;28;4241;-73
2022/01/08 12:06:18;;;;;;;;;;;;;;;20.53;51.99;100468.59;5028788;28;4153;-68
2022/01/08 12:08:57;;;;;;;;;;;;;;;20.50;53.06;100462.03;5042548;28;4372;-77
2022/01/08 12:11:23;;;;;;;;;;;;;;;20.61;52.67;100468.19;5043646;28;4476;-77
2022/01/08 12:13:50;;;;;;;;;;;;;;;20.59;53.09;100465.22;5020233;28;4042;-77
2022/01/08 12:16:35;;;;;;;;;;;;;;;20.62;53.00;100453.16;5032320;28;4120;-77
2022/01/08 12:19:02;;;;;;;;;;;;;;;20.65;54.25;100451.81;5032806;28;4740;-72
2022/01/08 12:21:29;;;;;;;;;;;;;;;20.81;53.52;100457.47;5035339;28;4660;-67
2022/01/08 12:23:55;;;;;;;;;;;;;;;20.92;52.97;100444.22;5034572;28;4577;-66
2022/01/08 12:26:22;;;;;;;;;;;;;;;20.93;52.80;100443.53;5017640;28;4249;-67
2022/01/08 12:28:50;;;;;;;;;;;;;;;20.96;52.78;100443.59;5029762;28;4192;-67
2022/01/08 12:31:23;;;;;;;;;;;;;;;21.01;53.25;100433.75;5033109;28;4378;-68
2022/01/08 12:34:10;;;;;;;;;;;;;;;20.82;53.41;100435.94;5033556;28;3979;-68
2022/01/08 12:36:52;;;;;;;;;;;;;;;20.70;52.47;100432.56;5019329;28;3973;-68
2022/01/08 12:39:22;;;;;;;;;;;;;;;20.81;51.70;100422.94;5032224;28;4541;-68
2022/01/08 12:41:48;;;;;;;;;;;;;;;20.83;51.08;100431.66;5025506;28;4053;-69
2022/01/08 12:44:25;;;;;;;;;;;;;;;20.81;50.85;100431.56;5018185;28;3944;-68
2022/01/08 12:46:51;;;;;;;;;;;;;;;20.88;50.45;100432.53;5030409;28;4135;-68
2022/01/08 12:49:18;;;;;;;;;;;;;;;20.89;50.58;100429.00;5024358;28;4217;-68
2022/01/08 12:51:44;;;;;;;;;;;;;;;20.90;50.68;100436.22;5027475;28;5360;-68
2022/01/08 12:54:10;;;;;;;;;;;;;;;20.93;50.56;100429.13;5018604;28;4256;-68
2022/01/08 12:56:44;;;;;;;;;;;;;;;20.85;50.75;100434.59;5017220;28;4342;-67
2022/01/08 12:59:11;;;;;;;;;;;;;;;20.88;50.64;100433.28;5017142;28;4084;-67
2022/01/08 13:01:39;;;;;;;;;;;;;;;20.93;50.40;100429.13;5018722;28;4322;-68
2022/01/08 13:04:14;;;;;;;;;;;;;;;20.97;50.23;100424.94;5037183;28;4603;-68
2022/01/08 13:06:41;;;;;;;;;;;;;;;20.96;50.42;100426.34;5018277;28;4221;-68
2022/01/08 13:09:12;;;;;;;;;;;;;;;20.95;50.47;100424.88;5015180;28;4326;-68
2022/01/08 13:11:39;;;;;;;;;;;;;;;20.99;50.49;100419.28;5035788;28;4226;-67